Time;durP1;ratioP1;P1;durP2;ratioP2;P2;SDS_P1;SDS_P2;PMS_P1;PMS_P2;Temp;Humidity;BMP_temperature;BMP_pressure;BME280_temperature;BME280_humidity;BME280_pressure;Samples;Min_cycle;Max_cycle;Signal;HPM_P1;HPM_P2
2022/10/28 00:01:04;;;;;;;25.60;11.65;;;;;;;;;;5088791;28;20127;-72
2022/10/28 00:03:30;;;;;;;22.05;12.30;;;;;;;;;;5086125;28;20047;-73
2022/10/28 00:06:07;;;;;;;22.80;11.65;;;;;;;;;;5087574;28;20048;-73
2022/10/28 00:08:33;;;;;;;21.23;11.68;;;;;;;;;;5090682;28;20044;-73
2022/10/28 00:11:08;;;;;;;25.80;12.63;;;;;;;;;;5088382;28;20084;-73
2022/10/28 00:13:35;;;;;;;26.48;12.60;;;;;;;;;;5082812;28;20064;-73
2022/10/28 00:16:04;;;;;;;19.98;11.75;;;;;;;;;;5071708;28;20455;-72
2022/10/28 00:18:30;;;;;;;24.88;12.60;;;;;;;;;;5084697;28;20048;-73
2022/10/28 00:21:04;;;;;;;28.27;12.98;;;;;;;;;;5092767;28;20107;-73
2022/10/28 00:23:30;;;;;;;25.50;13.35;;;;;;;;;;5088599;28;20171;-73
2022/10/28 00:26:02;;;;;;;26.60;13.00;;;;;;;;;;5080577;28;20391;-73
2022/10/28 00:28:28;;;;;;;24.73;12.93;;;;;;;;;;5080940;28;20049;-71
2022/10/28 00:30:55;;;;;;;25.63;13.50;;;;;;;;;;5089541;28;20119;-72
2022/10/28 00:33:21;;;;;;;23.23;12.95;;;;;;;;;;5083785;28;20040;-73
2022/10/28 00:35:47;;;;;;;22.50;13.18;;;;;;;;;;5078662;28;20078;-72
2022/10/28 00:38:13;;;;;;;23.00;12.85;;;;;;;;;;5084475;28;20170;-74
2022/10/28 00:40:39;;;;;;;22.55;11.95;;;;;;;;;;5092583;28;20120;-72
2022/10/28 00:43:05;;;;;;;28.27;12.88;;;;;;;;;;5090458;28;20040;-72
2022/10/28 00:45:31;;;;;;;25.25;13.82;;;;;;;;;;5084808;28;20139;-73
2022/10/28 00:48:00;;;;;;;24.10;13.27;;;;;;;;;;5086608;28;20044;-73
2022/10/28 00:50:26;;;;;;;25.65;13.85;;;;;;;;;;5075065;28;20048;-71
2022/10/28 00:52:54;;;;;;;27.40;14.07;;;;;;;;;;5088447;28;20476;-72
2022/10/28 00:55:21;;;;;;;25.75;13.43;;;;;;;;;;5087501;28;20045;-71
2022/10/28 00:57:47;;;;;;;25.25;13.35;;;;;;;;;;5090176;28;20048;-74
2022/10/28 01:00:13;;;;;;;;;;;;;;;;;;5075712;28;20468;-71
2022/10/28 01:02:43;;;;;;;26.77;13.68;;;;;;;;;;5085409;28;19964;-71
2022/10/28 01:05:10;;;;;;;26.50;12.65;;;;;;;;;;5074505;28;20113;-73
2022/10/28 01:07:36;;;;;;;27.25;12.85;;;;;;;;;;5088380;28;20063;-73
2022/10/28 01:10:02;;;;;;;21.48;12.23;;;;;;;;;;5090739;28;20043;-71
2022/10/28 01:12:46;;;;;;;25.67;12.93;;;;;;;;;;5091481;28;20086;-73
2022/10/28 01:15:31;;;;;;;26.83;12.80;;;;;;;;;;5082840;28;20113;-72
2022/10/28 01:18:01;;;;;;;26.55;12.20;;;;;;;;;;5090482;28;20127;-73
2022/10/28 01:20:46;;;;;;;26.55;12.52;;;;;;;;;;5089698;28;20116;-73
2022/10/28 01:23:18;;;;;;;26.98;13.15;;;;;;;;;;5090633;28;20063;-72
2022/10/28 01:25:50;;;;;;;26.58;12.25;;;;;;;;;;5080265;28;20112;-73
2022/10/28 01:28:22;;;;;;;25.88;13.38;;;;;;;;;;5086512;28;20044;-71
2022/10/28 01:31:07;;;;;;;28.42;13.73;;;;;;;;;;5076727;28;20048;-72
2022/10/28 01:33:36;;;;;;;27.15;13.02;;;;;;;;;;5087385;28;20094;-73
2022/10/28 01:36:17;;;;;;;26.00;13.52;;;;;;;;;;5071541;28;20385;-72
2022/10/28 01:38:59;;;;;;;23.80;12.20;;;;;;;;;;5077809;28;20159;-72
2022/10/28 01:41:25;;;;;;;21.20;12.52;;;;;;;;;;5085864;28;20406;-73
2022/10/28 01:43:58;;;;;;;26.98;12.40;;;;;;;;;;5089349;28;20123;-72
2022/10/28 01:46:27;;;;;;;24.50;12.85;;;;;;;;;;5085298;28;20048;-73
2022/10/28 01:48:56;;;;;;;23.95;13.02;;;;;;;;;;5089549;28;20044;-72
2022/10/28 01:51:26;;;;;;;26.23;13.27;;;;;;;;;;5088133;28;20048;-72
2022/10/28 01:53:54;;;;;;;25.80;13.18;;;;;;;;;;5086383;28;20052;-72
2022/10/28 01:56:23;;;;;;;24.80;12.95;;;;;;;;;;5087153;28;20079;-73
2022/10/28 01:58:50;;;;;;;24.50;12.75;;;;;;;;;;5088983;28;20073;-72
2022/10/28 02:01:16;;;;;;;;;;;;;;;;;;5060108;28;20045;-73
2022/10/28 02:03:42;;;;;;;25.92;13.02;;;;;;;;;;5087755;28;19920;-72
2022/10/28 02:06:14;;;;;;;29.80;13.68;;;;;;;;;;5081079;28;20044;-72
2022/10/28 02:08:52;;;;;;;26.20;14.35;;;;;;;;;;5086436;28;20455;-72
2022/10/28 02:11:21;;;;;;;24.75;13.85;;;;;;;;;;5077297;28;20460;-72
2022/10/28 02:13:47;;;;;;;29.70;13.70;;;;;;;;;;5082644;28;20044;-72
2022/10/28 02:16:31;;;;;;;26.80;14.15;;;;;;;;;;5086427;28;20097;-73
2022/10/28 02:18:57;;;;;;;26.98;13.90;;;;;;;;;;5079030;28;20452;-72
2022/10/28 02:21:44;;;;;;;25.40;13.82;;;;;;;;;;5077496;28;20047;-72
2022/10/28 02:24:23;;;;;;;24.95;13.93;;;;;;;;;;5062939;28;20203;-72
2022/10/28 02:26:54;;;;;;;28.88;13.13;;;;;;;;;;5085879;28;20067;-72
2022/10/28 02:29:27;;;;;;;26.75;14.43;;;;;;;;;;5081449;28;20127;-73
2022/10/28 02:31:58;;;;;;;26.10;13.80;;;;;;;;;;5079802;28;20135;-72
2022/10/28 02:34:27;;;;;;;24.52;13.73;;;;;;;;;;5086782;28;20075;-72
2022/10/28 02:36:54;;;;;;;26.10;14.57;;;;;;;;;;5085312;28;20146;-71
2022/10/28 02:39:24;;;;;;;30.50;15.48;;;;;;;;;;5072976;28;20048;-72
2022/10/28 02:41:59;;;;;;;27.55;14.57;;;;;;;;;;5069236;28;20125;-71
2022/10/28 02:44:30;;;;;;;28.13;14.85;;;;;;;;;;5084480;28;20063;-72
2022/10/28 02:46:58;;;;;;;31.55;16.38;;;;;;;;;;5076464;28;20128;-71
2022/10/28 02:49:26;;;;;;;31.35;17.15;;;;;;;;;;5080495;28;20147;-71
2022/10/28 02:51:54;;;;;;;26.65;16.02;;;;;;;;;;5078666;28;20562;-72
2022/10/28 02:54:24;;;;;;;32.47;17.70;;;;;;;;;;5086789;28;20036;-71
2022/10/28 02:56:55;;;;;;;31.15;17.17;;;;;;;;;;5074192;28;20040;-71
2022/10/28 02:59:23;;;;;;;30.45;17.88;;;;;;;;;;5086550;28;20040;-71
2022/10/28 03:01:49;;;;;;;29.58;16.77;;;;;;;;;;5086337;28;20135;-71
2022/10/28 03:04:15;;;;;;;27.65;16.58;;;;;;;;;;5089516;28;20110;-71
2022/10/28 03:06:41;;;;;;;33.10;17.50;;;;;;;;;;5089401;28;20040;-71
2022/10/28 03:09:07;;;;;;;28.20;16.83;;;;;;;;;;5072993;28;20048;-71
2022/10/28 03:11:33;;;;;;;29.45;17.33;;;;;;;;;;5090048;28;20062;-73
2022/10/28 03:13:59;;;;;;;32.05;18.60;;;;;;;;;;5088158;28;20036;-71
2022/10/28 03:16:25;;;;;;;37.25;17.45;;;;;;;;;;5089557;28;20067;-71
2022/10/28 03:18:52;;;;;;;32.28;18.33;;;;;;;;;;5087918;28;20451;-71
2022/10/28 03:21:18;;;;;;;35.53;19.27;;;;;;;;;;5087773;28;20158;-71
2022/10/28 03:23:44;;;;;;;31.25;18.27;;;;;;;;;;5087706;28;20445;-71
2022/10/28 03:26:10;;;;;;;29.40;17.15;;;;;;;;;;5089584;28;20117;-71
2022/10/28 03:28:36;;;;;;;31.17;18.77;;;;;;;;;;5086004;28;20123;-72
2022/10/28 03:31:02;;;;;;;33.15;19.85;;;;;;;;;;5080589;28;20040;-71
2022/10/28 03:33:28;;;;;;;32.42;19.48;;;;;;;;;;5078618;28;20123;-71
2022/10/28 03:35:54;;;;;;;31.10;19.25;;;;;;;;;;5068006;28;20079;-71
2022/10/28 03:38:20;;;;;;;27.75;18.45;;;;;;;;;;5076562;28;20052;-71
2022/10/28 03:40:47;;;;;;;40.53;21.02;;;;;;;;;;5075308;28;20127;-71
2022/10/28 03:43:13;;;;;;;37.22;21.25;;;;;;;;;;5076023;28;20128;-71
2022/10/28 03:45:40;;;;;;;39.60;21.00;;;;;;;;;;5075960;28;20044;-72
2022/10/28 03:48:06;;;;;;;;;;;;;;;;;;5083146;28;20078;-71
2022/10/28 03:50:32;;;;;;;36.78;22.17;;;;;;;;;;5082915;28;19924;-71
2022/10/28 03:52:58;;;;;;;;;;;;;;;;;;5084564;28;20056;-71
2022/10/28 03:55:24;;;;;;;40.25;22.20;;;;;;;;;;5087640;28;19927;-70
2022/10/28 03:57:50;;;;;;;;;;;;;;;;;;5088899;28;20434;-72
2022/10/28 04:00:16;;;;;;;36.83;21.88;;;;;;;;;;5071186;28;19920;-71
2022/10/28 04:02:42;;;;;;;40.47;20.98;;;;;;;;;;5069627;28;20360;-72
2022/10/28 04:05:09;;;;;;;37.92;22.02;;;;;;;;;;5068364;28;20396;-71
2022/10/28 04:07:35;;;;;;;39.97;21.80;;;;;;;;;;5068316;28;20037;-71
2022/10/28 04:10:01;;;;;;;39.63;22.15;;;;;;;;;;5073253;28;20858;-71
2022/10/28 04:12:27;;;;;;;41.70;21.80;;;;;;;;;;5087941;28;20070;-71
2022/10/28 04:14:53;;;;;;;36.83;22.20;;;;;;;;;;5087505;28;20108;-72
2022/10/28 04:17:19;;;;;;;34.67;21.10;;;;;;;;;;5088921;28;20051;-71
2022/10/28 04:19:45;;;;;;;40.58;21.58;;;;;;;;;;5079036;28;20401;-72
2022/10/28 04:22:11;;;;;;;39.67;22.85;;;;;;;;;;5084820;28;20364;-71
2022/10/28 04:24:37;;;;;;;35.88;21.77;;;;;;;;;;5084707;28;20135;-71
2022/10/28 04:27:03;;;;;;;35.55;21.75;;;;;;;;;;5066873;28;20041;-71
2022/10/28 04:29:29;;;;;;;37.67;22.17;;;;;;;;;;5068395;28;20136;-72
2022/10/28 04:31:55;;;;;;;37.03;22.50;;;;;;;;;;5085332;28;20041;-71
2022/10/28 04:34:21;;;;;;;41.05;22.92;;;;;;;;;;5068440;28;20064;-71
2022/10/28 04:36:47;;;;;;;42.40;22.50;;;;;;;;;;5076692;28;20273;-72
2022/10/28 04:39:13;;;;;;;39.75;24.05;;;;;;;;;;5088182;28;20044;-72
2022/10/28 04:41:39;;;;;;;35.80;21.65;;;;;;;;;;5074696;28;20045;-70
2022/10/28 04:44:05;;;;;;;36.35;21.73;;;;;;;;;;5077909;28;20047;-71
2022/10/28 04:46:31;;;;;;;34.67;21.20;;;;;;;;;;5074344;28;20041;-71
2022/10/28 04:48:57;;;;;;;39.78;21.23;;;;;;;;;;5084600;28;20052;-71
2022/10/28 04:51:24;;;;;;;41.00;22.85;;;;;;;;;;5077503;28;20115;-71
2022/10/28 04:53:50;;;;;;;36.42;21.70;;;;;;;;;;5085261;28;20059;-74
2022/10/28 04:56:16;;;;;;;36.80;22.42;;;;;;;;;;5088834;28;20175;-72
2022/10/28 04:58:42;;;;;;;41.67;23.48;;;;;;;;;;5071907;28;20052;-70
2022/10/28 05:01:09;;;;;;;37.03;21.23;;;;;;;;;;5076801;28;20083;-71
2022/10/28 05:03:35;;;;;;;40.65;22.95;;;;;;;;;;5088263;28;20135;-72
2022/10/28 05:06:01;;;;;;;38.97;22.27;;;;;;;;;;5089281;28;20092;-71
2022/10/28 05:08:27;;;;;;;;;;;;;;;;;;5090292;28;20067;-71
2022/10/28 05:10:53;;;;;;;41.03;23.80;;;;;;;;;;5089608;28;19920;-72
2022/10/28 05:13:19;;;;;;;44.88;23.42;;;;;;;;;;5074130;28;20448;-71
2022/10/28 05:15:45;;;;;;;;;;;;;;;;;;5085058;28;20131;-76
2022/10/28 05:18:11;;;;;;;36.30;22.75;;;;;;;;;;5069393;28;20097;-70
2022/10/28 05:20:37;;;;;;;38.72;22.80;;;;;;;;;;5083363;28;20052;-71
2022/10/28 05:23:03;;;;;;;38.53;22.13;;;;;;;;;;5074093;28;20056;-72
2022/10/28 05:25:29;;;;;;;38.53;22.08;;;;;;;;;;5073356;28;20055;-72
2022/10/28 05:27:59;;;;;;;40.13;21.67;;;;;;;;;;5080238;28;20044;-72
2022/10/28 05:30:25;;;;;;;39.72;21.20;;;;;;;;;;5070981;28;20040;-71
2022/10/28 05:32:51;;;;;;;;;;;;;;;;;;5073182;28;20045;-71
2022/10/28 05:35:17;;;;;;;40.33;21.75;;;;;;;;;;5079223;28;19931;-71
2022/10/28 05:37:43;;;;;;;36.25;21.70;;;;;;;;;;5098007;28;20074;-71
2022/10/28 05:40:09;;;;;;;35.63;21.60;;;;;;;;;;5082075;28;20084;-71
2022/10/28 05:42:35;;;;;;;;;;;;;;;;;;5076377;28;20040;-71
2022/10/28 05:45:01;;;;;;;40.95;20.75;;;;;;;;;;5070249;28;20331;-71
2022/10/28 05:47:27;;;;;;;34.92;21.08;;;;;;;;;;5085614;28;20051;-70
2022/10/28 05:49:53;;;;;;;34.75;20.63;;;;;;;;;;5078909;28;20142;-71
2022/10/28 05:52:20;;;;;;;38.70;21.33;;;;;;;;;;5080683;28;20084;-70
2022/10/28 05:54:46;;;;;;;36.72;21.02;;;;;;;;;;5086230;28;20044;-70
2022/10/28 05:57:12;;;;;;;36.13;20.65;;;;;;;;;;5086443;28;20121;-71
2022/10/28 05:59:38;;;;;;;37.85;20.30;;;;;;;;;;5079060;28;20044;-70
2022/10/28 06:02:04;;;;;;;34.17;19.83;;;;;;;;;;5085220;28;20082;-71
2022/10/28 06:04:31;;;;;;;35.30;20.13;;;;;;;;;;5091710;28;20098;-70
2022/10/28 06:06:57;;;;;;;37.15;20.38;;;;;;;;;;5092486;28;20109;-75
2022/10/28 06:09:26;;;;;;;37.05;20.58;;;;;;;;;;5089063;28;20062;-70
2022/10/28 06:11:52;;;;;;;32.67;18.83;;;;;;;;;;5085557;28;20040;-70
2022/10/28 06:14:18;;;;;;;31.42;20.30;;;;;;;;;;5084620;28;20105;-71
2022/10/28 06:16:45;;;;;;;36.38;20.10;;;;;;;;;;5080258;28;20055;-71
2022/10/28 06:19:11;;;;;;;35.40;20.25;;;;;;;;;;5068692;28;20048;-72
2022/10/28 06:21:37;;;;;;;34.20;19.83;;;;;;;;;;5083290;28;20060;-72
2022/10/28 06:24:04;;;;;;;34.72;19.15;;;;;;;;;;5089673;28;20063;-71
2022/10/28 06:26:30;;;;;;;38.97;18.88;;;;;;;;;;5085783;28;20135;-72
2022/10/28 06:28:56;;;;;;;34.20;20.58;;;;;;;;;;5086022;28;20159;-71
2022/10/28 06:31:22;;;;;;;37.95;20.00;;;;;;;;;;5074873;28;20078;-73
2022/10/28 06:33:48;;;;;;;37.35;19.42;;;;;;;;;;5086338;28;20108;-71
2022/10/28 06:36:14;;;;;;;31.83;18.83;;;;;;;;;;5088141;28;20071;-71
2022/10/28 06:38:40;;;;;;;34.72;18.60;;;;;;;;;;5085049;28;20421;-75
2022/10/28 06:41:06;;;;;;;31.83;19.05;;;;;;;;;;5071531;28;20041;-75
2022/10/28 06:43:32;;;;;;;34.05;18.77;;;;;;;;;;5082243;28;20115;-73
2022/10/28 06:46:02;;;;;;;39.83;18.60;;;;;;;;;;5082341;28;20044;-73
2022/10/28 06:48:28;;;;;;;32.50;18.42;;;;;;;;;;5084323;28;20079;-72
2022/10/28 06:50:55;;;;;;;37.60;18.48;;;;;;;;;;5082754;28;20611;-71
2022/10/28 06:53:21;;;;;;;34.30;17.45;;;;;;;;;;5083954;28;20054;-73
2022/10/28 06:55:47;;;;;;;;;;;;;;;;;;5080836;28;20113;-73
2022/10/28 06:58:14;;;;;;;45.97;29.08;;;;;;;;;;5084125;28;19927;-73
2022/10/28 07:00:40;;;;;;;;;;;;;;;;;;5082475;28;20454;-70
2022/10/28 07:03:06;;;;;;;33.88;17.67;;;;;;;;;;5074192;28;19921;-75
2022/10/28 07:05:32;;;;;;;37.85;18.02;;;;;;;;;;5085834;28;20048;-72
2022/10/28 07:07:58;;;;;;;37.25;18.23;;;;;;;;;;5081012;28;20052;-73
2022/10/28 07:10:24;;;;;;;30.55;17.23;;;;;;;;;;5092749;28;20119;-74
2022/10/28 07:12:51;;;;;;;29.90;17.63;;;;;;;;;;5086936;28;20081;-75
2022/10/28 07:15:17;;;;;;;34.67;18.05;;;;;;;;;;5074689;28;20109;-74
2022/10/28 07:17:43;;;;;;;34.42;17.88;;;;;;;;;;5086320;28;20059;-70
2022/10/28 07:20:10;;;;;;;34.70;17.40;;;;;;;;;;5084635;28;20044;-73
2022/10/28 07:22:36;;;;;;;32.15;17.98;;;;;;;;;;5084074;28;20078;-72
2022/10/28 07:25:02;;;;;;;30.42;17.42;;;;;;;;;;5086005;28;20047;-73
2022/10/28 07:27:28;;;;;;;31.55;17.38;;;;;;;;;;5085909;28;20062;-71
2022/10/28 07:29:54;;;;;;;30.60;17.15;;;;;;;;;;5084944;28;20050;-73
2022/10/28 07:32:20;;;;;;;32.45;16.67;;;;;;;;;;5088332;28;20114;-74
2022/10/28 07:34:46;;;;;;;35.05;16.88;;;;;;;;;;5078764;28;20040;-75
2022/10/28 07:37:14;;;;;;;32.25;15.55;;;;;;;;;;5077441;28;20117;-76
2022/10/28 07:39:40;;;;;;;29.42;16.02;;;;;;;;;;5089752;28;20052;-74
2022/10/28 07:42:06;;;;;;;31.92;15.98;;;;;;;;;;5083881;28;20080;-74
2022/10/28 07:44:32;;;;;;;29.50;15.68;;;;;;;;;;5088527;28;20453;-75
2022/10/28 07:46:58;;;;;;;32.45;15.45;;;;;;;;;;5086788;28;20366;-75
2022/10/28 07:49:24;;;;;;;30.55;16.10;;;;;;;;;;5084538;28;20044;-69
2022/10/28 07:51:50;;;;;;;29.02;15.68;;;;;;;;;;5088196;28;20058;-72
2022/10/28 07:54:16;;;;;;;27.05;14.95;;;;;;;;;;5078552;28;20036;-76
2022/10/28 07:56:42;;;;;;;25.33;14.25;;;;;;;;;;5088760;28;20040;-74
2022/10/28 07:59:08;;;;;;;26.95;14.20;;;;;;;;;;5073658;28;20083;-74
2022/10/28 08:01:34;;;;;;;31.55;14.98;;;;;;;;;;5087746;28;20051;-74
2022/10/28 08:04:01;;;;;;;28.83;14.90;;;;;;;;;;5088482;28;20136;-72
2022/10/28 08:06:27;;;;;;;;;;;;;;;;;;5088469;28;20052;-71
2022/10/28 08:08:54;;;;;;;29.52;13.85;;;;;;;;;;5088517;28;19920;-72
2022/10/28 08:11:23;;;;;;;28.10;14.18;;;;;;;;;;5087875;28;20062;-74
2022/10/28 08:13:49;;;;;;;34.67;13.93;;;;;;;;;;5088227;28;20508;-73
2022/10/28 08:16:16;;;;;;;26.05;13.80;;;;;;;;;;5083132;28;20189;-73
2022/10/28 08:18:42;;;;;;;30.10;13.40;;;;;;;;;;5088537;28;20044;-74
2022/10/28 08:21:09;;;;;;;28.85;13.80;;;;;;;;;;5088389;28;20579;-72
2022/10/28 08:23:37;;;;;;;26.95;13.77;;;;;;;;;;5086410;28;20132;-73
2022/10/28 08:26:03;;;;;;;27.83;12.85;;;;;;;;;;5088904;28;20060;-72
2022/10/28 08:28:29;;;;;;;25.23;12.52;;;;;;;;;;5090724;28;20109;-71
2022/10/28 08:31:00;;;;;;;25.27;12.45;;;;;;;;;;5092592;28;20460;-64
2022/10/28 08:33:26;;;;;;;23.63;12.70;;;;;;;;;;5078856;28;20101;-70
2022/10/28 08:35:52;;;;;;;28.20;13.27;;;;;;;;;;5091617;28;20127;-70
2022/10/28 08:38:18;;;;;;;26.83;12.10;;;;;;;;;;5092040;28;20165;-69
2022/10/28 08:41:03;;;;;;;30.42;13.50;;;;;;;;;;5090662;28;20051;-71
2022/10/28 08:43:41;;;;;;;26.23;12.18;;;;;;;;;;5077236;28;20112;-70
2022/10/28 08:46:10;;;;;;;27.15;11.98;;;;;;;;;;5082702;28;20086;-67
2022/10/28 08:48:36;;;;;;;23.73;11.77;;;;;;;;;;5091981;28;20087;-71
2022/10/28 08:51:02;;;;;;;;;;;;;;;;;;5092624;28;20445;-71
2022/10/28 08:53:41;;;;;;;26.92;11.35;;;;;;;;;;5073399;28;19934;-65
2022/10/28 08:56:13;;;;;;;28.52;11.80;;;;;;;;;;5073312;28;20165;-71
2022/10/28 08:58:40;;;;;;;22.80;11.00;;;;;;;;;;5072619;28;20056;-76
2022/10/28 09:01:09;;;;;;;27.92;11.45;;;;;;;;;;5070563;28;20084;-71
2022/10/28 09:03:39;;;;;;;23.88;10.50;;;;;;;;;;5071397;28;20234;-74
2022/10/28 09:06:07;;;;;;;26.77;10.77;;;;;;;;;;5072380;28;20485;-71
2022/10/28 09:08:39;;;;;;;25.25;10.55;;;;;;;;;;5084461;28;20146;-70
2022/10/28 09:11:11;;;;;;;25.60;11.13;;;;;;;;;;5074028;28;20044;-70
2022/10/28 09:13:55;;;;;;;23.88;9.98;;;;;;;;;;5091721;28;20526;-71
2022/10/28 09:16:51;;;;;;;21.33;9.82;;;;;;;;;;5072012;28;20052;-73
2022/10/28 09:19:26;;;;;;;28.35;11.40;;;;;;;;;;5067282;28;20052;-70
2022/10/28 09:22:11;;;;;;;20.38;9.80;;;;;;;;;;5072049;28;20044;-73
2022/10/28 09:24:39;;;;;;;22.58;10.90;;;;;;;;;;5071818;28;20397;-71
2022/10/28 09:27:05;;;;;;;27.35;10.98;;;;;;;;;;5071765;28;20159;-71
2022/10/28 09:29:39;;;;;;;24.88;10.93;;;;;;;;;;5070203;28;20047;-75
2022/10/28 09:32:28;;;;;;;28.80;10.88;;;;;;;;;;5070916;28;20049;-74
2022/10/28 09:34:58;;;;;;;25.00;10.23;;;;;;;;;;5071320;28;20041;-72
2022/10/28 09:37:27;;;;;;;22.23;10.55;;;;;;;;;;5070732;28;20345;-71
2022/10/28 09:39:55;;;;;;;26.38;10.20;;;;;;;;;;5071460;28;20125;-71
2022/10/28 09:42:24;;;;;;;20.92;9.43;;;;;;;;;;5071899;28;20098;-72
2022/10/28 09:44:52;;;;;;;26.90;10.05;;;;;;;;;;5069977;28;20093;-72
2022/10/28 09:47:31;;;;;;;24.52;9.82;;;;;;;;;;5086402;28;20048;-73
2022/10/28 09:50:00;;;;;;;29.08;10.07;;;;;;;;;;5089551;28;20451;-71
2022/10/28 09:52:30;;;;;;;26.00;10.75;;;;;;;;;;5071271;28;20040;-71
2022/10/28 09:54:57;;;;;;;24.75;10.00;;;;;;;;;;5071162;28;20045;-71
2022/10/28 09:57:28;;;;;;;26.17;10.80;;;;;;;;;;5070918;28;20049;-73
2022/10/28 09:59:54;;;;;;;25.10;9.75;;;;;;;;;;5070786;28;20051;-71
2022/10/28 10:02:27;;;;;;;21.98;9.38;;;;;;;;;;5072817;28;20076;-69
2022/10/28 10:04:55;;;;;;;26.75;9.57;;;;;;;;;;5070239;28;20118;-71
2022/10/28 10:07:34;;;;;;;29.95;10.02;;;;;;;;;;5070546;28;20135;-69
2022/10/28 10:10:03;;;;;;;22.45;9.20;;;;;;;;;;5069161;28;20045;-68
2022/10/28 10:12:31;;;;;;;21.50;8.63;;;;;;;;;;5079294;28;20063;-71
2022/10/28 10:14:58;;;;;;;21.88;8.63;;;;;;;;;;5089067;28;20039;-69
2022/10/28 10:17:28;;;;;;;21.05;8.27;;;;;;;;;;5090429;28;20040;-71
2022/10/28 10:20:03;;;;;;;23.67;8.65;;;;;;;;;;5090751;28;20474;-71
2022/10/28 10:22:33;;;;;;;23.30;8.82;;;;;;;;;;5084660;28;20131;-70
2022/10/28 10:24:59;;;;;;;19.90;8.15;;;;;;;;;;5088101;28;20040;-69
2022/10/28 10:27:26;;;;;;;26.92;9.35;;;;;;;;;;5090868;28;20056;-71
2022/10/28 10:29:53;;;;;;;27.67;9.52;;;;;;;;;;5088392;28;20071;-70
2022/10/28 10:32:30;;;;;;;19.77;8.60;;;;;;;;;;5089392;28;20051;-72
2022/10/28 10:34:56;;;;;;;22.90;8.75;;;;;;;;;;5091225;28;20044;-70
2022/10/28 10:37:22;;;;;;;;;;;;;;;;;;5090720;28;20063;-73
2022/10/28 10:40:00;;;;;;;22.95;9.05;;;;;;;;;;5081130;28;19924;-73
2022/10/28 10:42:26;;;;;;;19.20;8.75;;;;;;;;;;5069193;28;20079;-76
2022/10/28 10:45:02;;;;;;;24.98;8.82;;;;;;;;;;5069605;28;20044;-71
2022/10/28 10:47:28;;;;;;;30.73;10.43;;;;;;;;;;5070472;28;20052;-68
2022/10/28 10:50:13;;;;;;;22.50;9.27;;;;;;;;;;5069799;28;20441;-73
2022/10/28 10:52:46;;;;;;;26.75;9.27;;;;;;;;;;5069307;28;20466;-72
2022/10/28 10:55:19;;;;;;;22.83;8.68;;;;;;;;;;5088362;28;20063;-70
2022/10/28 10:57:46;;;;;;;19.83;8.32;;;;;;;;;;5089389;28;20063;-72
2022/10/28 11:00:16;;;;;;;22.23;8.82;;;;;;;;;;5089030;28;20464;-73
2022/10/28 11:02:45;;;;;;;24.55;9.15;;;;;;;;;;5090688;28;20164;-70
2022/10/28 11:05:11;;;;;;;26.60;8.73;;;;;;;;;;5089871;28;20036;-71
2022/10/28 11:07:39;;;;;;;22.27;8.63;;;;;;;;;;5087934;28;20120;-73
2022/10/28 11:10:05;;;;;;;22.90;8.25;;;;;;;;;;5087361;28;20117;-71
2022/10/28 11:12:34;;;;;;;20.33;9.73;;;;;;;;;;5076626;28;20059;-73
2022/10/28 11:15:23;;;;;;;23.48;9.77;;;;;;;;;;5081639;28;20060;-73
2022/10/28 11:18:00;;;;;;;26.92;11.32;;;;;;;;;;5070506;28;20345;-75
2022/10/28 11:20:30;;;;;;;25.33;8.65;;;;;;;;;;5080366;28;20105;-69
2022/10/28 11:23:19;;;;;;;28.40;9.20;;;;;;;;;;5072406;28;20547;-69
2022/10/28 11:25:47;;;;;;;29.80;10.68;;;;;;;;;;5065884;28;20063;-72
2022/10/28 11:28:13;;;;;;;20.80;8.57;;;;;;;;;;5090209;28;20050;-73
2022/10/28 11:30:39;;;;;;;23.30;9.23;;;;;;;;;;5089494;28;20044;-71
2022/10/28 11:33:15;;;;;;;24.25;9.05;;;;;;;;;;5077689;28;20496;-75
2022/10/28 11:35:44;;;;;;;24.77;8.48;;;;;;;;;;5083880;28;20040;-75
2022/10/28 11:38:16;;;;;;;18.63;7.65;;;;;;;;;;5089055;28;20048;-72
2022/10/28 11:40:42;;;;;;;22.38;8.30;;;;;;;;;;5089133;28;20055;-75
2022/10/28 11:43:29;;;;;;;23.85;8.45;;;;;;;;;;5090125;28;20087;-74
2022/10/28 11:46:10;;;;;;;23.77;8.23;;;;;;;;;;5074884;28;20048;-73
2022/10/28 11:48:51;;;;;;;25.17;8.77;;;;;;;;;;5070188;28;20095;-71
2022/10/28 11:51:24;;;;;;;24.15;8.30;;;;;;;;;;5070726;28;20037;-74
2022/10/28 11:54:16;;;;;;;21.02;8.45;;;;;;;;;;5070199;28;20045;-75
2022/10/28 11:56:48;;;;;;;23.50;8.27;;;;;;;;;;5068763;28;20064;-73
2022/10/28 11:59:32;;;;;;;25.67;8.57;;;;;;;;;;5069773;28;20048;-71
2022/10/28 12:02:16;;;;;;;20.55;8.00;;;;;;;;;;5078571;28;20043;-71
2022/10/28 12:04:49;;;;;;;25.25;8.43;;;;;;;;;;5082734;28;20152;-72
2022/10/28 12:07:15;;;;;;;26.92;8.23;;;;;;;;;;5079373;28;20514;-68
2022/10/28 12:09:59;;;;;;;24.45;7.75;;;;;;;;;;5086072;28;20071;-77
2022/10/28 12:12:25;;;;;;;24.15;8.40;;;;;;;;;;5095103;28;20051;-74
2022/10/28 12:14:51;;;;;;;;;;;;;;;;;;5086012;28;20336;-77
2022/10/28 12:17:23;;;;;;;22.52;8.18;;;;;;;;;;5111000;27;20011;-76
2022/10/28 12:19:54;;;;;;;24.13;7.63;;;;;;;;;;5080193;28;20060;-75
2022/10/28 12:22:22;;;;;;;22.33;7.65;;;;;;;;;;5073501;28;20048;-68
2022/10/28 12:24:49;;;;;;;22.98;7.60;;;;;;;;;;5083751;28;20066;-72
2022/10/28 12:27:18;;;;;;;21.83;7.18;;;;;;;;;;5074701;28;20213;-74
2022/10/28 12:29:46;;;;;;;25.45;8.07;;;;;;;;;;5082490;28;20364;-71
2022/10/28 12:32:14;;;;;;;26.55;8.15;;;;;;;;;;5090013;28;20128;-68
2022/10/28 12:34:43;;;;;;;21.10;8.27;;;;;;;;;;5090342;28;20214;-72
2022/10/28 12:37:29;;;;;;;21.58;7.78;;;;;;;;;;5072754;28;20052;-75
2022/10/28 12:40:14;;;;;;;19.93;7.43;;;;;;;;;;5083213;28;20055;-72
2022/10/28 12:42:45;;;;;;;21.73;8.63;;;;;;;;;;5093334;28;20300;-76
2022/10/28 12:45:14;;;;;;;27.88;8.10;;;;;;;;;;5093029;28;20051;-82
2022/10/28 12:47:58;;;;;;;30.15;9.43;;;;;;;;;;5085907;28;20051;-73
2022/10/28 12:50:27;;;;;;;23.88;8.30;;;;;;;;;;5089768;28;20040;-73
2022/10/28 12:53:02;;;;;;;23.35;8.13;;;;;;;;;;5073985;28;20114;-75
2022/10/28 12:55:34;;;;;;;21.83;8.20;;;;;;;;;;5072556;28;20192;-73
2022/10/28 12:58:03;;;;;;;23.50;8.38;;;;;;;;;;5082183;28;20051;-69
2022/10/28 13:00:31;;;;;;;24.55;8.60;;;;;;;;;;5089916;28;20517;-71
2022/10/28 13:03:06;;;;;;;25.08;7.93;;;;;;;;;;5083008;28;20060;-71
2022/10/28 13:05:36;;;;;;;24.35;8.48;;;;;;;;;;5093488;28;20044;-71
2022/10/28 13:08:09;;;;;;;25.58;8.25;;;;;;;;;;5089748;28;20040;-71
2022/10/28 13:10:45;;;;;;;25.08;8.48;;;;;;;;;;5091439;28;20452;-68
2022/10/28 13:13:35;;;;;;;21.40;8.63;;;;;;;;;;5091838;28;20127;-70
2022/10/28 13:16:16;;;;;;;25.13;8.32;;;;;;;;;;5087243;28;20076;-69
2022/10/28 13:19:11;;;;;;;22.33;8.00;;;;;;;;;;5090622;28;20368;-70
2022/10/28 13:21:56;;;;;;;23.63;8.00;;;;;;;;;;5068603;28;20138;-73
2022/10/28 13:24:26;;;;;;;21.15;8.18;;;;;;;;;;5072182;28;20044;-67
2022/10/28 13:26:53;;;;;;;19.73;7.60;;;;;;;;;;5073376;28;20453;-72
2022/10/28 13:29:24;;;;;;;22.30;8.25;;;;;;;;;;5081103;28;20097;-72
2022/10/28 13:31:51;;;;;;;22.10;8.23;;;;;;;;;;5082353;28;20040;-69
2022/10/28 13:34:20;;;;;;;26.02;8.70;;;;;;;;;;5077553;28;20048;-65
2022/10/28 13:36:53;;;;;;;24.42;8.27;;;;;;;;;;5104866;28;20567;-70
2022/10/28 13:39:22;;;;;;;24.45;8.35;;;;;;;;;;5078486;28;20059;-67
2022/10/28 13:41:48;;;;;;;21.98;8.45;;;;;;;;;;5089054;28;20396;-69
2022/10/28 13:44:15;;;;;;;;;;;;;;;;;;5079599;28;20132;-70
2022/10/28 13:46:59;;;;;;;27.58;8.75;;;;;;;;;;5080985;28;20011;-69
2022/10/28 13:49:26;;;;;;;23.15;8.48;;;;;;;;;;5090094;28;20048;-70
2022/10/28 13:51:58;;;;;;;22.10;8.85;;;;;;;;;;5085372;28;20072;-67
2022/10/28 13:54:32;;;;;;;21.70;7.90;;;;;;;;;;5086491;28;20098;-64
2022/10/28 13:57:17;;;;;;;23.20;8.60;;;;;;;;;;5072830;28;20075;-66
2022/10/28 13:59:49;;;;;;;24.52;9.02;;;;;;;;;;5077607;28;20101;-66
2022/10/28 14:02:24;;;;;;;28.35;9.25;;;;;;;;;;5076399;28;20052;-72
2022/10/28 14:04:54;;;;;;;23.65;8.40;;;;;;;;;;5088073;28;20046;-66
2022/10/28 14:07:26;;;;;;;25.77;8.80;;;;;;;;;;5091221;28;20043;-66
2022/10/28 14:09:55;;;;;;;23.30;8.88;;;;;;;;;;5091019;28;20048;-65
2022/10/28 14:12:23;;;;;;;23.60;8.90;;;;;;;;;;5079866;28;20415;-64
2022/10/28 14:14:58;;;;;;;25.75;8.85;;;;;;;;;;5087036;28;20051;-70
2022/10/28 14:17:27;;;;;;;25.88;9.25;;;;;;;;;;5090634;28;20557;-66
2022/10/28 14:19:53;;;;;;;18.92;8.73;;;;;;;;;;5090331;28;20052;-65
2022/10/28 14:22:27;;;;;;;26.73;9.50;;;;;;;;;;5089737;28;20104;-64
2022/10/28 14:24:53;;;;;;;32.30;9.50;;;;;;;;;;5079292;28;20051;-65
2022/10/28 14:27:19;;;;;;;27.23;9.57;;;;;;;;;;5088394;28;20133;-64
2022/10/28 14:30:03;;;;;;;25.20;9.45;;;;;;;;;;5083443;28;20044;-65
2022/10/28 14:32:32;;;;;;;30.38;9.10;;;;;;;;;;5090117;28;20124;-66
2022/10/28 14:35:13;;;;;;;23.17;9.07;;;;;;;;;;5089653;28;20127;-62
2022/10/28 14:37:39;;;;;;;29.77;9.82;;;;;;;;;;5089290;28;20132;-66
2022/10/28 14:40:13;;;;;;;28.80;9.85;;;;;;;;;;5089647;28;20044;-64